createdAt,value
2018-06-01T00:02:13.307Z,12.28
2018-06-01T00:04:41.742Z,12.29
2018-06-01T00:07:09.729Z,12.30
2018-06-01T00:09:38.268Z,12.31
2018-06-01T00:12:06.671Z,12.29
2018-06-01T00:14:35.458Z,12.28
2018-06-01T00:17:03.013Z,12.27
2018-06-01T00:19:31.671Z,12.24
2018-06-01T00:21:59.446Z,12.22
2018-06-01T00:24:27.767Z,12.19
2018-06-01T00:26:55.494Z,12.17
2018-06-01T00:29:23.608Z,12.15
2018-06-01T00:31:51.261Z,12.14
2018-06-01T00:34:18.931Z,12.13
2018-06-01T00:36:46.946Z,12.12
2018-06-01T00:39:14.537Z,12.10
2018-06-01T00:41:42.170Z,12.10
2018-06-01T00:44:09.758Z,12.07
2018-06-01T00:46:37.311Z,12.05
2018-06-01T00:49:04.871Z,12.01
2018-06-01T00:51:33.075Z,11.96
2018-06-01T00:54:00.622Z,11.91
2018-06-01T00:56:28.429Z,11.87
2018-06-01T00:58:56.029Z,11.81
2018-06-01T01:01:23.598Z,11.75
2018-06-01T01:03:51.143Z,11.67
2018-06-01T01:06:19.184Z,11.60
2018-06-01T01:08:47.905Z,11.57
2018-06-01T01:11:16.810Z,11.50
2018-06-01T01:13:45.068Z,11.46
2018-06-01T01:16:13.262Z,11.42
2018-06-01T01:18:40.851Z,11.40
2018-06-01T01:21:09.211Z,11.38
2018-06-01T01:23:37.255Z,11.38
2018-06-01T01:26:04.811Z,11.37
2018-06-01T01:28:32.973Z,11.36
2018-06-01T01:31:00.561Z,11.35
2018-06-01T01:33:28.112Z,11.34
2018-06-01T01:35:55.694Z,11.34
2018-06-01T01:38:23.363Z,11.31
2018-06-01T01:41:05.840Z,11.24
2018-06-01T01:43:33.517Z,11.21
2018-06-01T01:46:01.061Z,11.20
2018-06-01T01:48:28.631Z,11.18
2018-06-01T01:50:56.748Z,11.18
2018-06-01T01:53:24.305Z,11.16
2018-06-01T01:55:51.863Z,11.14
2018-06-01T01:58:19.478Z,11.07
2018-06-01T02:00:47.340Z,11.00
2018-06-01T02:03:15.050Z,10.91
2018-06-01T02:05:43.811Z,10.82
2018-06-01T02:08:12.239Z,10.80
2018-06-01T02:10:40.752Z,10.76
2018-06-01T02:13:12.840Z,10.76
2018-06-01T02:15:40.892Z,10.76
2018-06-01T02:18:08.454Z,10.72
2018-06-01T02:20:36.754Z,10.71
2018-06-01T02:23:05.269Z,10.67
2018-06-01T02:25:32.829Z,10.64
2018-06-01T02:28:00.977Z,10.61
2018-06-01T02:30:28.531Z,10.59
2018-06-01T02:32:56.061Z,10.55
2018-06-01T02:35:23.651Z,10.53
2018-06-01T02:37:51.190Z,10.56
2018-06-01T02:40:18.913Z,10.60
2018-06-01T02:42:46.778Z,10.65
2018-06-01T02:45:14.340Z,10.67
2018-06-01T02:47:42.013Z,10.70
2018-06-01T02:50:09.603Z,10.74
2018-06-01T02:52:38.671Z,11.16
2018-06-01T02:55:06.251Z,11.95
2018-06-01T02:57:33.827Z,12.65
2018-06-01T03:00:01.540Z,13.42
2018-06-01T03:02:29.133Z,14.12
2018-06-01T03:04:57.463Z,14.63
2018-06-01T03:07:25.078Z,15.23
2018-06-01T03:09:53.918Z,15.98
2018-06-01T03:12:22.201Z,16.67
2018-06-01T03:14:50.737Z,17.38
2018-06-01T03:17:18.339Z,18.06
2018-06-01T03:19:46.748Z,18.70
2018-06-01T03:22:14.357Z,19.31
2018-06-01T03:24:42.290Z,19.81
2018-06-01T03:27:09.853Z,20.17
2018-06-01T03:29:38.081Z,20.52
2018-06-01T03:32:05.641Z,20.85
2018-06-01T03:34:33.195Z,20.99
2018-06-01T03:37:00.807Z,21.11
2018-06-01T03:39:28.359Z,21.43
2018-06-01T03:41:55.893Z,21.57
2018-06-01T03:44:23.748Z,21.88
2018-06-01T03:46:51.532Z,22.08
2018-06-01T03:49:19.063Z,22.37
2018-06-01T03:51:47.748Z,22.45
2018-06-01T03:54:15.355Z,22.45
2018-06-01T03:56:43.126Z,22.61
2018-06-01T03:59:10.720Z,22.87
2018-06-01T04:01:38.381Z,23.16
2018-06-01T04:04:06.680Z,23.30
2018-06-01T04:06:34.862Z,23.35
2018-06-01T04:09:03.111Z,23.14
2018-06-01T04:11:31.387Z,22.87
2018-06-01T04:13:59.869Z,22.45
2018-06-01T04:16:27.994Z,21.84
2018-06-01T04:18:56.400Z,21.29
2018-06-01T04:21:24.027Z,20.61
2018-06-01T04:23:52.249Z,20.03
2018-06-01T04:26:19.809Z,19.52
2018-06-01T04:28:48.235Z,19.05
2018-06-01T04:31:15.853Z,18.61
2018-06-01T04:33:43.472Z,18.31
2018-06-01T04:36:11.147Z,17.99
2018-06-01T04:38:38.718Z,17.80
2018-06-01T04:41:06.473Z,17.58
2018-06-01T04:43:34.240Z,17.34
2018-06-01T04:46:01.826Z,17.21
2018-06-01T04:48:29.440Z,17.05
2018-06-01T04:50:57.593Z,16.92
2018-06-01T04:53:25.196Z,16.86
2018-06-01T04:55:52.970Z,16.80
2018-06-01T04:58:20.555Z,16.76
2018-06-01T05:00:48.979Z,16.72
2018-06-01T05:03:18.079Z,16.74
2018-06-01T05:05:46.852Z,16.74
2018-06-01T05:08:15.065Z,16.76
2018-06-01T05:10:43.204Z,16.76
2018-06-01T05:13:11.354Z,16.82
2018-06-01T05:15:39.812Z,16.87
2018-06-01T05:18:07.373Z,16.98
2018-06-01T05:20:35.466Z,17.09
2018-06-01T05:23:05.056Z,17.14
2018-06-01T05:25:32.639Z,17.13
2018-06-01T05:28:01.076Z,17.03
2018-06-01T05:30:28.710Z,17.03
2018-06-01T05:32:56.340Z,17.04
2018-06-01T05:35:25.509Z,17.01
2018-06-01T05:37:53.384Z,17.02
2018-06-01T05:40:20.963Z,17.14
2018-06-01T05:42:48.553Z,17.25
2018-06-01T05:45:16.455Z,17.33
2018-06-01T05:47:44.030Z,17.48
2018-06-01T05:50:11.716Z,17.53
2018-06-01T05:52:40.026Z,17.49
2018-06-01T05:55:07.681Z,17.53
2018-06-01T05:57:35.926Z,17.65
2018-06-01T06:00:03.589Z,17.79
2018-06-01T06:02:31.255Z,17.89
2018-06-01T06:04:59.879Z,17.90
2018-06-01T06:07:28.986Z,17.96
2018-06-01T06:09:57.183Z,18.10
2018-06-01T06:12:25.461Z,18.24
2018-06-01T06:14:54.024Z,18.39
2018-06-01T06:17:21.569Z,18.49
2018-06-01T06:19:49.969Z,18.61
2018-06-01T06:22:17.692Z,18.72
2018-06-01T06:24:46.208Z,18.80
2018-06-01T06:27:13.812Z,18.87
2018-06-01T06:29:42.024Z,18.99
2018-06-01T06:32:09.626Z,19.19
2018-06-01T06:34:37.234Z,19.31
2018-06-01T06:37:04.863Z,19.45
2018-06-01T06:39:32.461Z,19.56
2018-06-01T06:42:00.015Z,19.65
2018-06-01T06:44:27.644Z,19.78
2018-06-01T06:46:55.208Z,19.92
2018-06-01T06:49:22.750Z,20.01
2018-06-01T06:51:51.151Z,20.14
2018-06-01T06:54:18.720Z,20.26
2018-06-01T06:56:46.939Z,20.36
2018-06-01T06:59:14.476Z,20.47
2018-06-01T07:01:42.044Z,20.56
2018-06-01T07:04:09.659Z,20.60
2018-06-01T07:06:37.984Z,20.66
2018-06-01T07:09:07.984Z,20.76
2018-06-01T07:11:36.392Z,20.83
2018-06-01T07:14:05.068Z,20.72
2018-06-01T07:16:33.295Z,20.68
2018-06-01T07:19:01.367Z,20.65
2018-06-01T07:21:28.899Z,20.56
2018-06-01T07:23:57.423Z,20.66
2018-06-01T07:26:24.971Z,20.70
2018-06-01T07:28:53.678Z,20.77
2018-06-01T07:31:21.221Z,20.87
2018-06-01T07:33:48.767Z,20.76
2018-06-01T07:36:16.585Z,20.81
2018-06-01T07:38:44.273Z,20.88
2018-06-01T07:41:11.806Z,21.04
2018-06-01T07:43:39.397Z,21.01
2018-06-01T07:46:06.989Z,21.08
2018-06-01T07:48:34.555Z,21.20
2018-06-01T07:51:02.670Z,21.31
2018-06-01T07:53:30.830Z,21.37
2018-06-01T07:55:58.378Z,21.47
2018-06-01T07:58:25.934Z,21.61
2018-06-01T08:00:53.578Z,21.68
2018-06-01T08:03:21.116Z,21.76
2018-06-01T08:05:49.868Z,21.85
2018-06-01T08:08:18.195Z,21.96
2018-06-01T08:10:46.695Z,22.00
2018-06-01T08:13:15.530Z,22.03
2018-06-01T08:15:43.760Z,22.06
2018-06-01T08:18:11.319Z,22.19
2018-06-01T08:20:40.011Z,22.36
2018-06-01T08:23:08.495Z,22.53
2018-06-01T08:25:36.077Z,22.63
2018-06-01T08:28:04.403Z,22.74
2018-06-01T08:30:31.944Z,22.89
2018-06-01T08:32:59.495Z,22.94
2018-06-01T08:35:27.109Z,23.05
2018-06-01T08:37:54.710Z,23.15
2018-06-01T08:40:22.384Z,23.30
2018-06-01T08:42:50.105Z,23.38
2018-06-01T08:45:17.914Z,23.38
2018-06-01T08:47:47.147Z,23.31
2018-06-01T08:50:15.575Z,23.30
2018-06-01T08:52:44.181Z,23.34
2018-06-01T08:55:12.600Z,23.44
2018-06-01T08:57:40.195Z,23.57
2018-06-01T09:00:07.799Z,23.61
2018-06-01T09:02:35.368Z,23.59
2018-06-01T09:05:03.559Z,23.57
2018-06-01T09:07:31.112Z,23.57
2018-06-01T09:09:59.151Z,23.62
2018-06-01T09:12:27.106Z,23.59
2018-06-01T09:14:55.115Z,23.59
2018-06-01T09:17:22.743Z,23.60
2018-06-01T09:19:50.916Z,23.67
2018-06-01T09:22:19.268Z,23.75
2018-06-01T09:24:46.855Z,23.80
2018-06-01T09:27:14.405Z,23.88
2018-06-01T09:29:42.675Z,23.88
2018-06-01T09:32:10.214Z,23.87
2018-06-01T09:34:37.767Z,23.82
2018-06-01T09:37:05.360Z,23.83
2018-06-01T09:39:32.918Z,23.88
2018-06-01T09:42:00.456Z,23.89
2018-06-01T09:44:28.059Z,23.92
2018-06-01T09:46:55.634Z,24.08
2018-06-01T09:49:24.079Z,24.25
2018-06-01T09:51:52.132Z,24.41
2018-06-01T09:54:19.707Z,24.48
2018-06-01T09:56:47.500Z,24.44
2018-06-01T09:59:15.073Z,24.41
2018-06-01T10:01:42.643Z,24.45
2018-06-01T10:04:10.320Z,24.45
2018-06-01T10:06:38.435Z,24.49
2018-06-01T10:09:06.692Z,24.49
2018-06-01T10:11:35.542Z,24.53
2018-06-01T10:14:04.395Z,24.53
2018-06-01T10:16:32.387Z,24.52
2018-06-01T10:19:00.589Z,24.59
2018-06-01T10:21:28.154Z,24.75
2018-06-01T10:23:56.337Z,24.82
2018-06-01T10:26:24.379Z,24.91
2018-06-01T10:28:52.904Z,25.00
2018-06-01T10:31:20.528Z,25.13
2018-06-01T10:33:48.657Z,25.27
2018-06-01T10:36:16.536Z,25.34
2018-06-01T10:38:44.341Z,25.45
2018-06-01T10:41:12.016Z,25.58
2018-06-01T10:43:39.812Z,25.71
2018-06-01T10:46:08.098Z,25.79
2018-06-01T10:48:35.665Z,25.70
2018-06-01T10:51:03.972Z,25.71
2018-06-01T10:53:31.518Z,25.64
2018-06-01T10:55:59.087Z,25.67
2018-06-01T10:58:26.676Z,25.78
2018-06-01T11:00:54.267Z,25.88
2018-06-01T11:03:21.860Z,25.85
2018-06-01T11:05:50.573Z,25.84
2018-06-01T11:08:18.634Z,25.88
2018-06-01T11:10:46.791Z,25.95
2018-06-01T11:13:14.667Z,25.98
2018-06-01T11:15:43.133Z,26.06
2018-06-01T11:18:10.678Z,26.18
2018-06-01T11:20:39.392Z,26.23
2018-06-01T11:23:07.765Z,26.36
2018-06-01T11:25:35.484Z,26.51
2018-06-01T11:28:03.969Z,26.62
2018-06-01T11:30:31.853Z,26.73
2018-06-01T11:32:59.458Z,26.80
2018-06-01T11:35:28.385Z,26.85
2018-06-01T11:37:55.996Z,26.91
2018-06-01T11:40:23.643Z,27.00
2018-06-01T11:42:51.248Z,26.97
2018-06-01T11:45:19.665Z,27.00
2018-06-01T11:47:47.571Z,27.06
2018-06-01T11:50:15.476Z,27.12
2018-06-01T11:52:43.778Z,27.09
2018-06-01T11:55:11.351Z,27.09
2018-06-01T11:57:38.918Z,27.01
2018-06-01T12:00:06.591Z,26.86
2018-06-01T12:02:34.194Z,26.74
2018-06-01T12:05:02.839Z,26.72
2018-06-01T12:07:30.390Z,26.60
2018-06-01T12:09:59.023Z,26.60
2018-06-01T12:12:26.958Z,26.64
2018-06-01T12:14:55.707Z,26.72
2018-06-01T12:17:23.417Z,26.73
2018-06-01T12:19:51.572Z,26.79
2018-06-01T12:22:19.902Z,26.87
2018-06-01T12:24:47.635Z,26.85
2018-06-01T12:27:15.443Z,26.90
2018-06-01T12:29:43.585Z,26.93
2018-06-01T12:32:11.184Z,26.99
2018-06-01T12:34:38.737Z,27.02
2018-06-01T12:37:06.449Z,26.99
2018-06-01T12:39:34.014Z,26.90
2018-06-01T12:42:02.429Z,26.86
2018-06-01T12:44:30.023Z,26.84
2018-06-01T12:46:57.660Z,26.93
2018-06-01T12:49:25.942Z,27.01
2018-06-01T12:51:54.259Z,27.13
2018-06-01T12:54:21.814Z,27.09
2018-06-01T12:56:49.385Z,27.15
2018-06-01T12:59:17.235Z,27.26
2018-06-01T13:01:44.783Z,27.36
2018-06-01T13:04:12.427Z,27.41
2018-06-01T13:06:40.634Z,27.36
2018-06-01T13:09:08.616Z,27.30
2018-06-01T13:11:36.827Z,27.32
2018-06-01T13:14:05.169Z,27.35
2018-06-01T13:16:33.313Z,27.37
2018-06-01T13:19:01.717Z,27.45
2018-06-01T13:21:29.380Z,27.50
2018-06-01T13:23:57.587Z,27.54
2018-06-01T13:26:25.145Z,27.66
2018-06-01T13:28:53.168Z,27.77
2018-06-01T13:31:20.743Z,27.83
2018-06-01T13:33:48.302Z,27.90
2018-06-01T13:36:16.169Z,27.96
2018-06-01T13:38:44.555Z,28.06
2018-06-01T13:41:12.186Z,28.07
2018-06-01T13:43:39.745Z,28.01
2018-06-01T13:46:07.336Z,27.94
2018-06-01T13:48:34.893Z,27.88
2018-06-01T13:51:03.095Z,27.80
2018-06-01T13:53:30.700Z,27.73
2018-06-01T13:55:58.285Z,27.68
2018-06-01T13:58:25.966Z,27.68
2018-06-01T14:00:53.745Z,27.65
2018-06-01T14:03:21.323Z,27.62
2018-06-01T14:05:49.669Z,27.59
2018-06-01T14:08:18.221Z,27.58
2018-06-01T14:10:46.910Z,27.69
2018-06-01T14:13:15.082Z,27.69
2018-06-01T14:15:43.059Z,27.75
2018-06-01T14:18:10.632Z,27.67
2018-06-01T14:20:38.591Z,27.71
2018-06-01T14:23:06.958Z,27.76
2018-06-01T14:25:34.503Z,27.88
2018-06-01T14:28:03.109Z,27.98
2018-06-01T14:30:30.658Z,28.05
2018-06-01T14:32:58.295Z,28.08
2018-06-01T14:35:25.874Z,28.11
2018-06-01T14:37:54.160Z,28.13
2018-06-01T14:40:22.028Z,28.16
2018-06-01T14:42:49.590Z,28.21
2018-06-01T14:45:17.258Z,28.23
2018-06-01T14:47:44.876Z,28.23
2018-06-01T14:50:13.010Z,28.14
2018-06-01T14:52:40.595Z,28.10
2018-06-01T14:55:08.200Z,28.07
2018-06-01T14:57:36.579Z,28.06
2018-06-01T15:00:04.284Z,28.06
2018-06-01T15:02:31.924Z,28.12
2018-06-01T15:05:00.040Z,28.11
2018-06-01T15:07:27.638Z,28.06
2018-06-01T15:09:56.029Z,28.10
2018-06-01T15:12:24.394Z,28.18
2018-06-01T15:14:52.513Z,28.23
2018-06-01T15:17:20.132Z,28.28
2018-06-01T15:19:48.013Z,28.38
2018-06-01T15:22:17.265Z,28.67
2018-06-01T15:24:44.829Z,29.07
2018-06-01T15:27:12.387Z,29.45
2018-06-01T15:29:40.631Z,30.10
2018-06-01T15:32:08.240Z,30.90
2018-06-01T15:34:36.485Z,31.65
2018-06-01T15:37:04.080Z,32.47
2018-06-01T15:39:31.643Z,33.17
2018-06-01T15:41:59.227Z,33.55
2018-06-01T15:44:27.172Z,34.01
2018-06-01T15:46:54.828Z,34.31
2018-06-01T15:49:23.947Z,34.77
2018-06-01T15:51:51.539Z,35.18
2018-06-01T15:54:19.116Z,35.40
2018-06-01T15:56:46.806Z,35.39
2018-06-01T15:59:14.955Z,35.69
2018-06-01T16:01:42.489Z,35.96
2018-06-01T16:04:10.249Z,35.91
2018-06-01T16:06:39.225Z,35.69
2018-06-01T16:09:06.979Z,35.65
2018-06-01T16:11:35.122Z,35.51
2018-06-01T16:14:03.340Z,35.39
2018-06-01T16:16:31.390Z,35.24
2018-06-01T16:18:59.705Z,35.02
2018-06-01T16:21:27.299Z,34.88
2018-06-01T16:23:55.525Z,34.82
2018-06-01T16:26:23.122Z,34.84
2018-06-01T16:28:51.647Z,34.95
2018-06-01T16:31:19.902Z,35.02
2018-06-01T16:33:48.096Z,35.23
2018-06-01T16:36:15.696Z,35.36
2018-06-01T16:38:43.281Z,35.35
2018-06-01T16:41:10.843Z,35.36
2018-06-01T16:43:39.152Z,35.40
2018-06-01T16:46:06.680Z,35.32
2018-06-01T16:48:35.031Z,35.28
2018-06-01T16:51:02.647Z,35.19
2018-06-01T16:53:30.216Z,35.07
2018-06-01T16:55:57.783Z,35.16
2018-06-01T16:58:26.150Z,35.12
2018-06-01T17:00:53.680Z,35.31
2018-06-01T17:03:21.205Z,35.28
2018-06-01T17:05:49.658Z,35.26
2018-06-01T17:08:17.297Z,35.15
2018-06-01T17:10:46.280Z,34.96
2018-06-01T17:13:14.780Z,35.02
2018-06-01T17:15:42.992Z,35.12
2018-06-01T17:18:10.603Z,35.24
2018-06-01T17:20:39.197Z,35.08
2018-06-01T17:23:07.446Z,35.02
2018-06-01T17:25:34.982Z,34.94
2018-06-01T17:28:02.606Z,34.90
2018-06-01T17:30:30.195Z,34.96
2018-06-01T17:32:57.729Z,35.02
2018-06-01T17:35:26.219Z,34.87
2018-06-01T17:37:53.826Z,34.76
2018-06-01T17:40:22.179Z,34.64
2018-06-01T17:42:49.722Z,34.58
2018-06-01T17:45:17.301Z,34.50
2018-06-01T17:47:44.881Z,34.42
2018-06-01T17:50:12.458Z,34.45
2018-06-01T17:52:39.990Z,34.51
2018-06-01T17:55:07.575Z,34.38
2018-06-01T17:57:35.104Z,34.47
2018-06-01T18:00:02.733Z,34.42
2018-06-01T18:02:30.401Z,34.33
2018-06-01T18:04:58.741Z,34.36
2018-06-01T18:07:26.879Z,34.35
2018-06-01T18:09:54.437Z,34.44
2018-06-01T18:12:22.526Z,34.64
2018-06-01T18:14:50.731Z,34.80
2018-06-01T18:17:18.736Z,34.84
2018-06-01T18:19:46.915Z,34.86
2018-06-01T18:22:14.924Z,34.62
2018-06-01T18:24:42.457Z,34.59
2018-06-01T18:27:09.990Z,34.56
2018-06-01T18:29:37.564Z,34.59
2018-06-01T18:32:05.099Z,34.63
2018-06-01T18:34:33.481Z,34.40
2018-06-01T18:37:01.033Z,33.42
2018-06-01T18:39:28.584Z,32.42
2018-06-01T18:41:56.173Z,31.48
2018-06-01T18:44:23.814Z,30.70
2018-06-01T18:46:52.955Z,30.00
2018-06-01T18:49:20.684Z,29.36
2018-06-01T18:51:48.226Z,28.77
2018-06-01T18:54:16.006Z,28.32
2018-06-01T18:56:43.551Z,27.91
2018-06-01T18:59:11.447Z,27.59
2018-06-01T19:01:39.067Z,27.27
2018-06-01T19:04:06.644Z,27.00
2018-06-01T19:06:34.897Z,26.67
2018-06-01T19:09:03.268Z,26.40
2018-06-01T19:11:30.893Z,26.13
2018-06-01T19:13:59.272Z,25.86
2018-06-01T19:16:27.695Z,25.63
2018-06-01T19:18:55.735Z,25.39
2018-06-01T19:21:23.843Z,25.18
2018-06-01T19:23:52.055Z,25.00
2018-06-01T19:26:19.620Z,24.82
2018-06-01T19:28:47.257Z,24.65
2018-06-01T19:31:14.843Z,24.44
2018-06-01T19:33:43.579Z,24.25
2018-06-01T19:36:11.150Z,24.04
2018-06-01T19:38:38.723Z,23.86
2018-06-01T19:41:06.303Z,23.63
2018-06-01T19:43:33.935Z,23.49
2018-06-01T19:46:01.508Z,23.34
2018-06-01T19:48:29.116Z,23.18
2018-06-01T19:50:56.642Z,23.05
2018-06-01T19:53:24.825Z,22.91
2018-06-01T19:55:52.359Z,22.82
2018-06-01T19:58:19.969Z,22.69
2018-06-01T20:00:47.652Z,22.57
2018-06-01T20:03:15.360Z,22.42
2018-06-01T20:05:43.572Z,22.29
2018-06-01T20:08:11.823Z,22.18
2018-06-01T20:10:39.371Z,22.08
2018-06-01T20:13:07.748Z,21.95
2018-06-01T20:15:35.697Z,21.85
2018-06-01T20:18:03.871Z,21.75
2018-06-01T20:20:32.238Z,21.63
2018-06-01T20:23:00.599Z,21.55
2018-06-01T20:25:28.321Z,21.46
2018-06-01T20:27:55.885Z,21.37
2018-06-01T20:30:23.472Z,21.28
2018-06-01T20:32:51.024Z,21.16
2018-06-01T20:35:19.208Z,21.04
2018-06-01T20:37:46.756Z,20.89
2018-06-01T20:40:14.317Z,20.69
2018-06-01T20:42:41.914Z,20.47
2018-06-01T20:45:09.487Z,20.33
2018-06-01T20:47:37.131Z,20.25
2018-06-01T20:50:04.765Z,20.19
2018-06-01T20:52:32.424Z,20.16
2018-06-01T20:54:59.978Z,20.13
2018-06-01T20:57:27.581Z,20.09
2018-06-01T20:59:55.360Z,20.03
2018-06-01T21:02:22.931Z,19.96
2018-06-01T21:04:50.629Z,19.89
2018-06-01T21:07:18.768Z,19.82
2018-06-01T21:09:47.531Z,19.78
2018-06-01T21:12:16.988Z,19.72
2018-06-01T21:14:45.042Z,19.64
2018-06-01T21:17:13.506Z,19.57
2018-06-01T21:19:41.212Z,19.51
2018-06-01T21:22:09.330Z,19.45
2018-06-01T21:24:36.963Z,19.35
2018-06-01T21:27:04.555Z,19.27
2018-06-01T21:29:32.175Z,19.19
2018-06-01T21:31:59.774Z,19.09
2018-06-01T21:34:27.673Z,19.00
2018-06-01T21:36:55.305Z,18.92
2018-06-01T21:39:22.915Z,18.82
2018-06-01T21:41:50.543Z,18.74
2018-06-01T21:44:18.182Z,18.65
2018-06-01T21:46:46.141Z,18.58
2018-06-01T21:49:13.740Z,18.49
2018-06-01T21:51:42.058Z,18.40
2018-06-01T21:54:09.632Z,18.30
2018-06-01T21:56:37.363Z,18.19
2018-06-01T21:59:04.986Z,18.06
2018-06-01T22:01:32.796Z,17.97
2018-06-01T22:04:00.439Z,17.91
2018-06-01T22:06:28.659Z,17.83
2018-06-01T22:08:57.121Z,17.77
2018-06-01T22:11:24.728Z,17.73
2018-06-01T22:13:53.024Z,17.69
2018-06-01T22:16:20.964Z,17.62
2018-06-01T22:18:49.188Z,17.57
2018-06-01T22:21:17.391Z,17.52
2018-06-01T22:23:45.680Z,17.45
2018-06-01T22:26:13.413Z,17.36
2018-06-01T22:28:40.966Z,17.29
2018-06-01T22:31:08.575Z,17.24
2018-06-01T22:33:38.402Z,17.17
2018-06-01T22:36:06.091Z,17.09
2018-06-01T22:38:33.737Z,17.05
2018-06-01T22:41:01.538Z,17.02
2018-06-01T22:43:29.223Z,17.01
2018-06-01T22:45:56.889Z,16.99
2018-06-01T22:48:24.525Z,16.98
2018-06-01T22:50:52.156Z,16.95
2018-06-01T22:53:19.743Z,16.93
2018-06-01T22:55:47.486Z,16.88
2018-06-01T22:58:15.242Z,16.78
2018-06-01T23:00:42.895Z,16.64
2018-06-01T23:03:10.573Z,16.59
2018-06-01T23:05:38.901Z,16.55
2018-06-01T23:08:07.528Z,16.49
2018-06-01T23:10:35.195Z,16.47
2018-06-01T23:13:03.367Z,16.43
2018-06-01T23:15:31.601Z,16.40
2018-06-01T23:17:59.715Z,16.37
2018-06-01T23:20:28.063Z,16.37
2018-06-01T23:22:56.241Z,16.36
2018-06-01T23:25:23.903Z,16.36
2018-06-01T23:27:51.541Z,16.34
2018-06-01T23:30:19.228Z,16.32
2018-06-01T23:32:46.999Z,16.30
2018-06-01T23:35:14.828Z,16.29
2018-06-01T23:37:42.560Z,16.25
2018-06-01T23:40:10.245Z,16.23
2018-06-01T23:42:37.821Z,16.21
2018-06-01T23:45:05.485Z,16.14
2018-06-01T23:47:33.379Z,16.10
2018-06-01T23:50:01.107Z,16.07
2018-06-01T23:52:28.804Z,16.02
2018-06-01T23:54:56.409Z,15.98
2018-06-01T23:57:24.001Z,15.93
2018-06-01T23:59:51.747Z,15.87
